createdAt,value
2019-05-20T00:00:53.986Z,18.77
2019-05-20T00:03:24.456Z,20.60
2019-05-20T00:05:54.987Z,18.77
2019-05-20T00:08:25.502Z,20.83
2019-05-20T00:10:55.954Z,21.70
2019-05-20T00:13:26.424Z,20.20
2019-05-20T00:15:56.872Z,21.33
2019-05-20T00:18:27.392Z,21.60
2019-05-20T00:20:57.880Z,22.63
2019-05-20T00:23:28.404Z,21.97
2019-05-20T00:25:58.911Z,23.00
2019-05-20T00:28:29.395Z,21.47
2019-05-20T00:30:59.905Z,22.83
2019-05-20T00:33:30.404Z,21.63
2019-05-20T00:36:00.901Z,20.60
2019-05-20T00:38:31.518Z,19.97
2019-05-20T00:41:02.108Z,19.93
2019-05-20T00:43:32.749Z,20.43
2019-05-20T00:46:03.464Z,22.23
2019-05-20T00:48:34.045Z,20.80
2019-05-20T00:51:04.548Z,21.67
2019-05-20T00:53:35.055Z,21.60
2019-05-20T00:56:05.707Z,21.73
2019-05-20T00:58:36.213Z,21.97
2019-05-20T01:01:06.836Z,20.87
2019-05-20T01:03:37.421Z,21.13
2019-05-20T01:06:07.975Z,22.70
2019-05-20T01:08:38.403Z,23.20
2019-05-20T01:11:08.883Z,23.13
2019-05-20T01:13:39.365Z,25.23
2019-05-20T01:16:11.270Z,25.87
2019-05-20T01:18:41.972Z,26.97
2019-05-20T01:21:12.474Z,24.27
2019-05-20T01:23:42.957Z,23.90
2019-05-20T01:26:13.502Z,26.17
2019-05-20T01:28:44.195Z,24.43
2019-05-20T01:31:14.957Z,24.43
2019-05-20T01:33:45.394Z,26.67
2019-05-20T01:36:16.440Z,26.77
2019-05-20T01:38:46.986Z,22.60
2019-05-20T01:41:17.830Z,22.47
2019-05-20T01:43:48.356Z,24.63
2019-05-20T01:46:18.906Z,23.97
2019-05-20T01:48:49.459Z,24.33
2019-05-20T01:51:19.949Z,21.67
2019-05-20T01:53:50.429Z,22.33
2019-05-20T01:56:21.003Z,22.30
2019-05-20T01:58:51.598Z,19.97
2019-05-20T02:01:22.100Z,21.50
2019-05-20T02:03:52.642Z,21.57
2019-05-20T02:06:23.183Z,23.23
2019-05-20T02:08:53.700Z,21.27
2019-05-20T02:11:24.215Z,20.20
2019-05-20T02:14:01.711Z,20.13
2019-05-20T02:16:32.268Z,21.73
2019-05-20T02:19:03.287Z,22.10
2019-05-20T02:21:33.912Z,24.03
2019-05-20T02:24:04.618Z,21.70
2019-05-20T02:26:35.868Z,21.33
2019-05-20T02:29:06.536Z,22.23
2019-05-20T02:31:37.052Z,22.77
2019-05-20T02:34:07.525Z,23.00
2019-05-20T02:36:38.003Z,24.30
2019-05-20T02:39:08.499Z,22.13
2019-05-20T02:41:39.019Z,21.13
2019-05-20T02:44:09.807Z,19.60
2019-05-20T02:46:40.244Z,21.60
2019-05-20T02:49:10.725Z,21.87
2019-05-20T02:51:41.256Z,20.53
2019-05-20T02:54:11.721Z,21.13
2019-05-20T02:56:42.189Z,20.90
2019-05-20T02:59:12.658Z,22.13
2019-05-20T03:01:43.146Z,22.70
2019-05-20T03:04:13.670Z,21.90
2019-05-20T03:06:46.930Z,22.07
2019-05-20T03:09:17.408Z,21.60
2019-05-20T03:11:47.901Z,22.47
2019-05-20T03:14:18.347Z,22.83
2019-05-20T03:16:48.831Z,22.07
2019-05-20T03:19:19.600Z,22.03
2019-05-20T03:21:50.186Z,20.17
2019-05-20T03:24:20.693Z,19.73
2019-05-20T03:26:51.657Z,19.90
2019-05-20T03:29:22.123Z,20.10
2019-05-20T03:31:52.600Z,18.83
2019-05-20T03:34:43.363Z,20.27
2019-05-20T03:36:55.323Z,21.00
2019-05-20T03:39:25.808Z,19.70
2019-05-20T03:41:56.357Z,20.27
2019-05-20T03:44:26.833Z,18.63
2019-05-20T03:46:57.354Z,17.33
2019-05-20T03:49:27.821Z,19.40
2019-05-20T03:51:58.626Z,18.17
2019-05-20T03:54:29.081Z,19.30
2019-05-20T03:56:59.611Z,18.60
2019-05-20T03:59:30.071Z,17.83
2019-05-20T04:02:00.603Z,15.83
2019-05-20T04:04:31.078Z,16.23
2019-05-20T04:07:01.581Z,15.73
2019-05-20T04:09:32.060Z,14.87
2019-05-20T04:12:02.551Z,14.70
2019-05-20T04:14:33.023Z,15.77
2019-05-20T04:17:03.599Z,15.27
2019-05-20T04:19:34.043Z,15.50
2019-05-20T04:22:04.532Z,16.10
2019-05-20T04:24:35.004Z,14.50
2019-05-20T04:27:05.487Z,14.77
2019-05-20T04:29:35.982Z,16.03
2019-05-20T04:32:06.614Z,16.53
2019-05-20T04:34:37.063Z,18.10
2019-05-20T04:37:07.569Z,17.87
2019-05-20T04:39:38.075Z,17.70
2019-05-20T04:42:08.551Z,17.33
2019-05-20T04:44:39.102Z,17.60
2019-05-20T04:47:09.597Z,18.73
2019-05-20T04:49:40.138Z,19.50
2019-05-20T04:52:10.642Z,20.63
2019-05-20T04:54:41.101Z,20.47
2019-05-20T04:57:11.668Z,21.30
2019-05-20T04:59:42.229Z,22.53
2019-05-20T05:02:12.699Z,23.57
2019-05-20T05:04:43.244Z,22.37
2019-05-20T05:07:13.912Z,21.20
2019-05-20T05:09:44.382Z,25.33
2019-05-20T05:12:15.209Z,24.17
2019-05-20T05:14:45.747Z,23.53
2019-05-20T05:17:16.199Z,24.43
2019-05-20T05:19:46.682Z,24.53
2019-05-20T05:22:17.223Z,23.73
2019-05-20T05:24:47.669Z,24.43
2019-05-20T05:27:18.147Z,22.00
2019-05-20T05:29:48.738Z,22.17
2019-05-20T05:32:38.329Z,21.87
2019-05-20T05:35:08.996Z,21.43
2019-05-20T05:37:39.468Z,20.43
2019-05-20T05:40:11.000Z,21.70
2019-05-20T05:42:41.501Z,20.27
2019-05-20T05:45:13.281Z,18.23
2019-05-20T05:47:44.167Z,19.23
2019-05-20T05:50:14.980Z,19.73
2019-05-20T05:52:45.439Z,17.87
2019-05-20T05:55:15.980Z,17.27
2019-05-20T05:57:46.737Z,16.60
2019-05-20T06:00:18.229Z,16.27
2019-05-20T06:02:48.886Z,16.80
2019-05-20T06:05:22.347Z,16.77
2019-05-20T06:07:52.864Z,15.27
2019-05-20T06:10:23.578Z,15.97
2019-05-20T06:12:54.069Z,14.90
2019-05-20T06:15:24.730Z,14.67
2019-05-20T06:17:55.234Z,14.87
2019-05-20T06:20:25.718Z,14.03
2019-05-20T06:22:56.214Z,13.63
2019-05-20T06:25:26.710Z,13.03
2019-05-20T06:27:57.325Z,13.17
2019-05-20T06:30:41.320Z,12.70
2019-05-20T06:33:12.133Z,12.67
2019-05-20T06:35:42.686Z,11.97
2019-05-20T06:38:18.581Z,12.77
2019-05-20T06:40:49.110Z,13.30
2019-05-20T06:43:19.670Z,13.67
2019-05-20T06:45:50.184Z,11.87
2019-05-20T06:48:20.718Z,12.97
2019-05-20T06:50:51.205Z,11.37
2019-05-20T06:53:21.876Z,11.07
2019-05-20T06:55:52.568Z,11.63
2019-05-20T06:58:23.047Z,10.70
2019-05-20T07:00:53.561Z,11.67
2019-05-20T07:03:24.153Z,12.13
2019-05-20T07:05:54.884Z,11.57
2019-05-20T07:08:25.657Z,11.97
2019-05-20T07:10:56.338Z,11.03
2019-05-20T07:13:26.847Z,11.40
2019-05-20T07:15:57.462Z,10.57
2019-05-20T07:18:28.311Z,10.70
2019-05-20T07:20:58.926Z,10.27
2019-05-20T07:23:29.605Z,9.50
2019-05-20T07:26:00.069Z,9.77
2019-05-20T07:28:30.743Z,9.90
2019-05-20T07:31:01.256Z,9.43
2019-05-20T07:33:31.811Z,9.63
2019-05-20T07:36:02.540Z,10.27
2019-05-20T07:38:33.318Z,10.60
2019-05-20T07:41:03.830Z,9.57
2019-05-20T07:43:34.591Z,10.40
2019-05-20T07:46:05.799Z,9.87
2019-05-20T07:48:37.954Z,8.70
2019-05-20T07:51:09.729Z,9.00
2019-05-20T07:53:40.499Z,8.23
2019-05-20T07:56:17.675Z,9.33
2019-05-20T07:58:58.184Z,8.40
2019-05-20T08:01:28.796Z,8.30
2019-05-20T08:03:59.270Z,8.27
2019-05-20T08:06:29.869Z,8.27
2019-05-20T08:09:01.478Z,8.13
2019-05-20T08:11:33.630Z,8.80
2019-05-20T08:14:04.214Z,9.10
2019-05-20T08:16:34.889Z,8.03
2019-05-20T08:19:05.661Z,9.33
2019-05-20T08:21:36.165Z,9.50
2019-05-20T08:24:06.646Z,8.73
2019-05-20T08:26:37.109Z,9.50
2019-05-20T08:29:07.812Z,9.27
2019-05-20T08:31:38.375Z,10.30
2019-05-20T08:34:08.857Z,10.07
2019-05-20T08:36:39.401Z,11.90
2019-05-20T08:39:10.110Z,10.10
2019-05-20T08:41:41.028Z,9.20
2019-05-20T08:44:11.559Z,10.00
2019-05-20T08:46:42.078Z,9.53
2019-05-20T08:49:12.888Z,9.27
2019-05-20T08:51:43.329Z,9.60
2019-05-20T08:54:13.822Z,9.00
2019-05-20T08:56:44.421Z,9.60
2019-05-20T08:59:14.883Z,8.53
2019-05-20T09:01:50.869Z,7.40
2019-05-20T09:04:35.844Z,8.17
2019-05-20T09:07:29.273Z,9.00
2019-05-20T09:10:01.770Z,8.27
2019-05-20T09:13:06.637Z,8.00
2019-05-20T09:16:07.630Z,7.27
2019-05-20T09:19:15.273Z,7.30
2019-05-20T09:21:51.106Z,7.47
2019-05-20T09:24:26.862Z,7.73
2019-05-20T09:27:18.542Z,6.90
2019-05-20T09:29:49.228Z,6.37
2019-05-20T09:35:39.462Z,6.80
2019-05-20T09:38:20.016Z,6.70
2019-05-20T09:40:48.671Z,7.80
2019-05-20T09:43:19.352Z,7.83
2019-05-20T09:46:05.550Z,7.60
2019-05-20T09:48:25.172Z,8.53
2019-05-20T09:50:59.368Z,7.30
2019-05-20T09:53:30.043Z,6.77
2019-05-20T09:56:00.779Z,7.23
2019-05-20T09:58:31.382Z,7.00
2019-05-20T10:01:02.038Z,7.20
2019-05-20T10:03:32.497Z,8.10
2019-05-20T10:06:03.171Z,7.23
2019-05-20T10:08:40.963Z,7.63
2019-05-20T10:11:06.114Z,7.43
2019-05-20T10:13:36.678Z,7.70
2019-05-20T10:16:07.868Z,8.20
2019-05-20T10:18:39.445Z,7.80
2019-05-20T10:21:10.762Z,9.73
2019-05-20T10:23:41.268Z,10.43
2019-05-20T10:26:11.797Z,11.47
2019-05-20T10:28:46.825Z,10.50
2019-05-20T10:31:14.479Z,13.47
2019-05-20T10:33:45.008Z,14.80
2019-05-20T10:36:15.650Z,13.73
2019-05-20T10:38:57.511Z,14.33
2019-05-20T10:41:19.102Z,15.37
2019-05-20T10:43:49.878Z,16.20
2019-05-20T10:46:22.526Z,15.27
2019-05-20T10:51:49.895Z,16.87
2019-05-20T10:54:20.638Z,14.93
2019-05-20T10:57:27.433Z,14.40
2019-05-20T10:59:59.913Z,14.13
2019-05-20T11:02:57.841Z,15.23
2019-05-20T11:05:43.977Z,14.27
2019-05-20T11:08:21.691Z,14.60
2019-05-20T11:10:57.243Z,15.63
2019-05-20T11:13:37.223Z,16.33
2019-05-20T11:16:14.131Z,13.20
2019-05-20T11:18:45.046Z,13.97
2019-05-20T11:21:23.392Z,13.40
2019-05-20T11:23:54.181Z,13.60
2019-05-20T11:26:24.605Z,13.43
2019-05-20T11:28:57.160Z,13.10
2019-05-20T11:31:27.864Z,12.13
2019-05-20T11:34:04.605Z,13.27
2019-05-20T11:36:35.143Z,14.33
2019-05-20T11:39:32.445Z,14.10
2019-05-20T11:41:59.740Z,12.67
2019-05-20T11:44:43.092Z,12.33
2019-05-20T11:47:15.503Z,12.83
2019-05-20T11:49:59.173Z,13.77
2019-05-20T11:52:32.735Z,14.57
2019-05-20T11:55:06.350Z,14.20
2019-05-20T11:58:14.489Z,15.03
2019-05-20T12:00:45.745Z,15.67
2019-05-20T12:03:38.196Z,16.03
2019-05-20T12:06:34.255Z,17.73
2019-05-20T12:09:08.004Z,17.70
2019-05-20T12:11:39.418Z,16.70
2019-05-20T12:14:09.964Z,17.63
2019-05-20T12:16:40.499Z,16.83
2019-05-20T12:19:38.447Z,16.83
2019-05-20T12:22:09.873Z,15.57
2019-05-20T12:24:40.708Z,16.20
2019-05-20T12:27:11.242Z,16.63
2019-05-20T12:29:42.087Z,16.63
2019-05-20T12:32:12.612Z,19.00
2019-05-20T12:34:43.545Z,18.93
2019-05-20T12:37:14.133Z,18.93
2019-05-20T12:39:46.574Z,17.07
2019-05-20T12:42:21.908Z,15.23
2019-05-20T12:44:52.373Z,16.30
2019-05-20T12:47:23.130Z,15.87
2019-05-20T12:49:53.632Z,16.23
2019-05-20T12:52:24.124Z,16.33
2019-05-20T12:55:07.010Z,16.83
2019-05-20T12:57:26.796Z,16.07
2019-05-20T13:00:04.190Z,19.13
2019-05-20T13:02:34.677Z,18.10
2019-05-20T13:05:12.455Z,19.30
2019-05-20T13:07:43.205Z,19.30
2019-05-20T13:10:28.825Z,17.93
2019-05-20T13:12:46.662Z,19.47
2019-05-20T13:15:26.968Z,19.00
2019-05-20T13:17:57.674Z,18.33
2019-05-20T13:20:28.227Z,18.50
2019-05-20T13:23:13.932Z,16.50
2019-05-20T13:25:44.071Z,14.73
2019-05-20T13:28:34.810Z,16.30
2019-05-20T13:31:07.195Z,16.03
2019-05-20T13:34:11.865Z,15.77
2019-05-20T13:36:42.670Z,16.60
2019-05-20T13:39:37.491Z,17.87
2019-05-20T13:42:35.472Z,18.97
2019-05-20T13:45:28.688Z,19.97
2019-05-20T13:48:24.233Z,20.27
2019-05-20T13:50:58.286Z,19.93
2019-05-20T13:53:28.800Z,22.17
2019-05-20T13:56:07.738Z,22.17
2019-05-20T13:58:38.413Z,22.97
2019-05-20T14:01:08.995Z,24.53
2019-05-20T14:03:39.513Z,25.07
2019-05-20T14:06:10.047Z,24.03
2019-05-20T14:08:41.493Z,24.30
2019-05-20T14:11:12.182Z,25.03
2019-05-20T14:13:43.983Z,28.40
2019-05-20T14:16:14.730Z,27.70
2019-05-20T14:18:45.291Z,27.63
2019-05-20T14:21:15.863Z,26.23
2019-05-20T14:23:46.363Z,26.97
2019-05-20T14:26:16.811Z,25.57
2019-05-20T14:28:47.344Z,25.93
2019-05-20T14:31:18.197Z,25.07
2019-05-20T14:33:50.108Z,24.33
2019-05-20T14:36:38.774Z,25.83
2019-05-20T14:38:53.569Z,25.03
2019-05-20T14:41:26.431Z,25.30
2019-05-20T14:44:41.023Z,26.10
2019-05-20T14:47:21.565Z,25.53
2019-05-20T14:49:52.047Z,23.57
2019-05-20T14:52:22.607Z,23.50
2019-05-20T14:54:53.219Z,23.90
2019-05-20T14:57:33.913Z,22.60
2019-05-20T15:00:05.819Z,24.17
2019-05-20T15:02:41.986Z,22.17
2019-05-20T15:05:12.945Z,21.23
2019-05-20T15:07:43.542Z,19.33
2019-05-20T15:10:15.328Z,17.77
2019-05-20T15:12:45.992Z,17.20
2019-05-20T15:15:16.520Z,16.80
2019-05-20T15:17:50.757Z,15.53
2019-05-20T15:20:27.251Z,15.23
2019-05-20T15:22:57.746Z,15.60
2019-05-20T15:25:32.892Z,14.20
2019-05-20T15:28:03.627Z,14.67
2019-05-20T15:30:45.357Z,14.57
2019-05-20T15:33:16.064Z,12.40
2019-05-20T15:35:46.667Z,12.00
2019-05-20T15:38:17.125Z,11.47
2019-05-20T15:40:47.645Z,10.53
2019-05-20T15:43:18.131Z,10.63
2019-05-20T15:45:54.334Z,10.03
2019-05-20T15:48:24.805Z,10.33
2019-05-20T15:50:55.273Z,10.00
2019-05-20T15:53:25.797Z,11.13
2019-05-20T15:55:56.297Z,9.37
2019-05-20T15:58:26.944Z,10.00
2019-05-20T16:01:01.134Z,10.83
2019-05-20T16:03:31.625Z,10.87
2019-05-20T16:06:02.150Z,11.93
2019-05-20T16:08:32.775Z,13.60
2019-05-20T16:11:06.669Z,15.70
2019-05-20T16:13:35.728Z,12.13
2019-05-20T16:16:13.254Z,13.00
2019-05-20T16:18:44.232Z,15.87
2019-05-20T16:21:18.270Z,11.93
2019-05-20T16:23:48.952Z,12.77
2019-05-20T16:26:19.519Z,13.17
2019-05-20T16:28:50.188Z,13.77
2019-05-20T16:31:20.773Z,14.83
2019-05-20T16:33:51.278Z,15.03
2019-05-20T16:36:21.781Z,16.73
2019-05-20T16:38:53.978Z,17.03
2019-05-20T16:41:24.478Z,17.23
2019-05-20T16:43:55.312Z,16.83
2019-05-20T16:46:25.835Z,18.00
2019-05-20T16:48:56.491Z,18.00
2019-05-20T16:51:27.078Z,20.23
2019-05-20T16:53:57.627Z,19.80
2019-05-20T16:56:28.228Z,20.60
2019-05-20T16:58:58.781Z,17.70
2019-05-20T17:01:29.381Z,18.90
2019-05-20T17:03:59.920Z,16.90
2019-05-20T17:06:30.805Z,17.00
2019-05-20T17:09:01.302Z,17.00
2019-05-20T17:11:31.789Z,14.13
2019-05-20T17:14:02.349Z,14.30
2019-05-20T17:16:32.826Z,14.63
2019-05-20T17:19:03.332Z,16.10
2019-05-20T17:21:33.883Z,16.70
2019-05-20T17:24:04.363Z,18.83
2019-05-20T17:26:34.919Z,19.30
2019-05-20T17:29:05.617Z,17.27
2019-05-20T17:31:36.161Z,16.40
2019-05-20T17:34:06.658Z,13.43
2019-05-20T17:36:37.166Z,13.10
2019-05-20T17:39:08.025Z,11.63
2019-05-20T17:41:38.533Z,11.07
2019-05-20T17:44:09.036Z,11.13
2019-05-20T17:46:39.614Z,11.50
2019-05-20T17:49:10.119Z,11.57
2019-05-20T17:51:43.273Z,10.57
2019-05-20T17:54:12.931Z,11.13
2019-05-20T17:56:43.462Z,12.90
2019-05-20T17:59:13.945Z,13.63
2019-05-20T18:01:44.411Z,14.67
2019-05-20T18:04:14.940Z,14.33
2019-05-20T18:06:45.444Z,14.73
2019-05-20T18:09:16.046Z,15.60
2019-05-20T18:11:46.540Z,16.70
2019-05-20T18:14:17.088Z,19.37
2019-05-20T18:16:47.642Z,19.97
2019-05-20T18:19:18.137Z,19.67
2019-05-20T18:21:48.705Z,18.43
2019-05-20T18:24:19.180Z,20.27
2019-05-20T18:26:49.664Z,19.17
2019-05-20T18:29:20.178Z,19.37
2019-05-20T18:31:50.702Z,18.03
2019-05-20T18:34:21.314Z,18.83
2019-05-20T18:36:51.769Z,19.57
2019-05-20T18:39:22.291Z,19.30
2019-05-20T18:41:52.975Z,19.03
2019-05-20T18:44:23.429Z,20.70
2019-05-20T18:46:54.015Z,19.10
2019-05-20T18:49:24.627Z,18.03
2019-05-20T18:51:55.099Z,18.43
2019-05-20T18:54:25.525Z,18.30
2019-05-20T18:56:56.043Z,19.63
2019-05-20T18:59:26.522Z,19.40
2019-05-20T19:02:04.986Z,20.60
2019-05-20T19:04:29.465Z,18.67
2019-05-20T19:07:00.092Z,18.33
2019-05-20T19:09:30.606Z,17.57
2019-05-20T19:12:01.115Z,21.70
2019-05-20T19:14:31.694Z,21.90
2019-05-20T19:17:02.256Z,20.50
2019-05-20T19:19:32.755Z,24.33
2019-05-20T19:22:03.287Z,24.33
2019-05-20T19:24:33.835Z,23.47
2019-05-20T19:27:05.418Z,23.60
2019-05-20T19:29:35.854Z,24.53
2019-05-20T19:32:06.733Z,22.40
2019-05-20T19:34:37.232Z,20.47
2019-05-20T19:37:07.746Z,19.37
2019-05-20T19:39:38.242Z,20.40
2019-05-20T19:42:08.759Z,20.57
2019-05-20T19:44:39.404Z,23.10
2019-05-20T19:47:09.839Z,22.60
2019-05-20T19:49:42.394Z,24.77
2019-05-20T19:52:12.641Z,25.50
2019-05-20T19:54:43.127Z,23.87
2019-05-20T19:57:13.705Z,20.03
2019-05-20T19:59:44.195Z,21.10
2019-05-20T20:02:17.485Z,21.73
2019-05-20T20:04:47.313Z,23.80
2019-05-20T20:07:17.982Z,23.67
2019-05-20T20:09:49.585Z,24.47
2019-05-20T20:12:20.459Z,26.23
2019-05-20T20:14:51.007Z,24.43
2019-05-20T20:17:21.735Z,23.63
2019-05-20T20:19:52.283Z,23.63
2019-05-20T20:22:22.771Z,22.73
2019-05-20T20:24:53.239Z,23.83
2019-05-20T20:27:23.758Z,22.33
2019-05-20T20:29:54.273Z,25.50
2019-05-20T20:32:37.426Z,24.50
2019-05-20T20:34:57.553Z,23.37
2019-05-20T20:37:28.078Z,24.83
2019-05-20T20:39:58.788Z,25.70
2019-05-20T20:42:29.823Z,26.00
2019-05-20T20:45:00.494Z,26.53
2019-05-20T20:47:41.155Z,26.33
2019-05-20T20:50:04.119Z,28.53
2019-05-20T20:52:34.940Z,27.83
2019-05-20T20:55:05.749Z,26.70
2019-05-20T20:57:36.209Z,26.00
2019-05-20T21:00:08.652Z,23.50
2019-05-20T21:02:52.149Z,26.17
2019-05-20T21:05:11.696Z,25.17
2019-05-20T21:07:42.322Z,23.43
2019-05-20T21:10:12.940Z,24.50
2019-05-20T21:12:43.391Z,26.57
2019-05-20T21:15:14.181Z,25.03
2019-05-20T21:17:44.965Z,27.17
2019-05-20T21:20:15.446Z,25.50
2019-05-20T21:22:45.950Z,27.17
2019-05-20T21:25:16.493Z,27.27
2019-05-20T21:27:46.962Z,28.37
2019-05-20T21:30:18.902Z,27.27
2019-05-20T21:32:49.397Z,28.83
2019-05-20T21:35:19.912Z,26.77
2019-05-20T21:37:50.396Z,26.63
2019-05-20T21:40:20.934Z,26.40
2019-05-20T21:42:51.445Z,25.40
2019-05-20T21:45:21.985Z,24.40
2019-05-20T21:47:52.658Z,24.53
2019-05-20T21:50:23.802Z,27.17
2019-05-20T21:52:54.620Z,26.93
2019-05-20T21:55:25.440Z,27.67
2019-05-20T21:57:56.619Z,26.23
2019-05-20T22:00:56.949Z,26.27
2019-05-20T22:03:28.238Z,22.20
2019-05-20T22:05:59.104Z,22.20
2019-05-20T22:08:29.855Z,21.90
2019-05-20T22:11:01.040Z,23.97
2019-05-20T22:13:31.781Z,20.47
2019-05-20T22:16:02.563Z,24.73
2019-05-20T22:18:33.337Z,22.67
2019-05-20T22:21:04.210Z,23.80
2019-05-20T22:23:46.588Z,23.67
2019-05-20T22:26:17.210Z,21.70
2019-05-20T22:28:47.836Z,22.00
2019-05-20T22:31:18.558Z,22.70
2019-05-20T22:33:49.255Z,22.47
2019-05-20T22:36:19.858Z,21.03
2019-05-20T22:38:50.453Z,21.63
2019-05-20T22:41:21.072Z,21.77
2019-05-20T22:43:51.777Z,21.87
2019-05-20T22:46:22.484Z,22.33
2019-05-20T22:48:53.078Z,21.77
2019-05-20T22:51:23.804Z,19.47
2019-05-20T22:53:54.470Z,20.00
2019-05-20T22:56:25.082Z,19.30
2019-05-20T22:58:55.805Z,19.03
2019-05-20T23:01:26.412Z,18.80
2019-05-20T23:03:57.188Z,17.87
2019-05-20T23:06:27.927Z,18.37
2019-05-20T23:08:58.662Z,17.73
2019-05-20T23:11:29.337Z,17.63
2019-05-20T23:14:00.006Z,17.60
2019-05-20T23:16:30.722Z,18.20
2019-05-20T23:19:01.372Z,17.03
2019-05-20T23:21:32.006Z,17.80
2019-05-20T23:24:02.668Z,17.87
2019-05-20T23:26:33.312Z,16.97
2019-05-20T23:29:03.955Z,15.90
2019-05-20T23:31:34.622Z,15.33
2019-05-20T23:34:12.736Z,14.53
2019-05-20T23:36:37.661Z,13.27
2019-05-20T23:39:08.359Z,12.90
2019-05-20T23:41:38.976Z,11.57
2019-05-20T23:44:09.644Z,12.93
2019-05-20T23:46:40.278Z,12.17
2019-05-20T23:49:10.985Z,12.80
2019-05-20T23:51:41.669Z,10.57
2019-05-20T23:54:12.610Z,10.30
2019-05-20T23:56:43.379Z,12.73
2019-05-20T23:59:13.958Z,11.93
